Home > Products > Valid Products > TAF

000
FTUS45 KTWC 282100 AAA
TAFOLS
TAF AMD
KOLS 282148Z 2822/2918 15010KT P6SM SCT090 BKN250
     FM282300 23010KT P6SM VCSH SCT060 BKN090
     FM290200 02006KT P6SM BKN090=



000
FTUS45 KTWC 282100 AAA
TAFOLS
TAF AMD
KOLS 282148Z 2822/2918 15010KT P6SM SCT090 BKN250
     FM282300 23010KT P6SM VCSH SCT060 BKN090
     FM290200 02006KT P6SM BKN090=



000
FTUS45 KTWC 282100 AAB
TAFDUG
TAF AMD
KDUG 282147Z 2822/2918 14008KT P6SM FEW050 SCT130 BKN250
     FM282300 26011KT P6SM VCSH SCT060 BKN090
      TEMPO 2900/2902 VRB20G30KT 4SM TSRA BKN060CB
     FM290400 04006KT P6SM BKN090
     FM291000 VRB05KT P6SM SCT090 BKN250=



000
FTUS45 KTWC 282000 AAA
TAFDUG
TAF AMD
KDUG 282003Z 2820/2918 14008KT P6SM FEW050 SCT130 BKN250
     FM282130 26011KT P6SM VCSH SCT060 BKN090
      TEMPO 2900/2902 VRB20G30KT 4SM TSRA BKN060CB
     FM290400 04006KT P6SM BKN090
     FM291000 VRB05KT P6SM SCT090 BKN250=



000
FTUS45 KTWC 282000 AAA
TAFTUS
TAF AMD
KTUS 282002Z 2820/2918 20008KT P6SM FEW080 BKN250
     FM290200 13010KT P6SM BKN100
     FM291100 14005KT P6SM SCT100 BKN250=



000
FTUS45 KTWC 281700
TAFOLS
TAF
KOLS 281736Z 2818/2918 15010KT P6SM SCT090 BKN250
     FM282100 23010KT P6SM VCSH SCT060 BKN090
     FM290200 02006KT P6SM BKN090=



000
FTUS45 KTWC 281700
TAFDUG
TAF
KDUG 281736Z 2818/2918 14006KT P6SM FEW080 SCT130 BKN250
     FM282000 26011KT P6SM VCSH SCT060 BKN090
      TEMPO 2900/2902 VRB20G30KT 4SM TSRA BKN060CB
     FM290400 04006KT P6SM BKN090
     FM291000 VRB05KT P6SM SCT090 BKN250=



000
FTUS45 KTWC 281700
TAFTUS
TAF
KTUS 281736Z 2818/2918 20008KT P6SM FEW080 SCT150 BKN250
     FM282000 25011KT P6SM VCSH SCT070 BKN150
     FM290200 13010KT P6SM BKN100
     FM291100 14005KT P6SM SCT100 BKN250=



000
FTUS45 KTWC 281100
TAFOLS
TAF
KOLS 281120Z 2812/2912 VRB05KT P6SM SCT040 BKN090
     FM282000 23010KT P6SM VCSH SCT060 BKN090
     FM290200 02006KT P6SM BKN090=



000
FTUS45 KTWC 281100
TAFOLS
TAF
KOLS 281120Z 2812/2912 VRB05KT P6SM SCT040 BKN090
     FM282000 23010KT P6SM VCSH SCT060 BKN090
     FM290200 02006KT P6SM BKN090=



000
FTUS45 KTWC 281100
TAFDUG
TAF
KDUG 281120Z 2812/2912 08006KT P6SM SCT080 BKN120
     FM282000 26011KT P6SM VCSH SCT060 BKN090
     FM290200 04006KT P6SM BKN090=



000
FTUS45 KTWC 281100
TAFTUS
TAF
KTUS 281120Z 2812/2912 13010KT P6SM BKN120
     FM281700 05006KT P6SM SCT060 SCT130
     FM282000 25011KT P6SM VCSH SCT070 BKN100
     FM290200 13010KT P6SM BKN100=



000
FTUS45 KTWC 280500
TAFOLS
TAF
KOLS 280520Z 2806/2906 04015G25KT P6SM VCSH SCT050 BKN100
      TEMPO 2806/2809 VRB20G30KT 4SM TSRA BKN040CB
     FM281000 VRB05KT P6SM SCT040 BKN090
     FM282000 23010KT P6SM VCSH SCT060
     FM290200 02006KT P6SM BKN090=



000
FTUS45 KTWC 280500
TAFOLS
TAF
KOLS 280520Z 2806/2906 04015G25KT P6SM VCSH SCT050 BKN100
      TEMPO 2806/2809 VRB20G30KT 4SM TSRA BKN040CB
     FM281000 VRB05KT P6SM SCT040 BKN090
     FM282000 23010KT P6SM VCSH SCT060
     FM290200 02006KT P6SM BKN090=



000
FTUS45 KTWC 280500
TAFTUS
TAF
KTUS 280520Z 2806/2906 08012G20KT P6SM VCSH SCT060 BKN100
      TEMPO 2806/2808 VRB15G25KT 5SM TSRA BKN060CB
     FM280900 13010KT P6SM SCT050 BKN100
     FM281700 05006KT P6SM SCT060 BKN130
     FM282000 25011KT P6SM VCSH SCT070
     FM290200 13010KT P6SM BKN100=



000
FTUS45 KTWC 280500
TAFDUG
TAF
KDUG 280520Z 2806/2906 24008KT P6SM -SHRA SCT060 BKN100
      TEMPO 2806/2807 6SM TSRA BKN060CB
     FM281000 08006KT P6SM SCT080 BKN120
     FM282000 26011KT P6SM VCSH SCT060
     FM290200 04006KT P6SM BKN100=



000
FTUS45 KTWC 280300 AAA
TAFOLS
TAF AMD
KOLS 280359Z 2804/2824 24005KT P6SM SCT070 BKN200
     FM280500 07011KT P6SM SCT050 BKN100
      TEMPO 2805/2808 VRB20G30KT 2SM TSRA BKN050CB
     FM282000 26008KT P6SM SCT100=



000
FTUS45 KTWC 280300 AAA
TAFOLS
TAF AMD
KOLS 280359Z 2804/2824 24005KT P6SM SCT070 BKN200
     FM280500 07011KT P6SM SCT050 BKN100
      TEMPO 2805/2808 VRB20G30KT 2SM TSRA BKN050CB
     FM282000 26008KT P6SM SCT100=



000
FTUS45 KTWC 280200 AAA
TAFTUS
TAF AMD
KTUS 280249Z 2803/2824 30008KT P6SM SCT080 BKN130
     FM280315 08011KT P6SM VCTS SCT070CB BKN120
      TEMPO 2804/2805 VRB20G30KT 5SM TSRA BKN060CB
     FM280530 13008KT P6SM SCT130 BKN250
     FM282000 30010G18KT P6SM SCT100=



000
FTUS45 KTWC 280100 AAB
TAFDUG
TAF AMD
KDUG 280144Z 2802/2824 24010KT P6SM VCSH SCT080 BKN200
      TEMPO 2802/2804 VRB20G30KT 5SM TSRA BKN060CB
     FM280900 08006KT P6SM SCT140 BKN250
     FM282000 27009KT P6SM SCT100=



000
FTUS45 KTWC 280000 AAA
TAFDUG
TAF AMD
KDUG 280042Z 2801/2824 17013KT P6SM SCT070 BKN200
     FM280200 36012KT P6SM SCT070 BKN140
     FM281100 08006KT P6SM SCT140 BKN250
     FM282000 27009KT P6SM SCT100=



000
FTUS45 KTWC 272300
TAFOLS
TAF
KOLS 272333Z 2800/2824 31008KT P6SM SCT070 BKN200
     FM280500 09005KT P6SM SCT130 BKN250
     FM282000 26008KT P6SM SCT100=



000
FTUS45 KTWC 272300
TAFOLS
TAF
KOLS 272333Z 2800/2824 31008KT P6SM SCT070 BKN200
     FM280500 09005KT P6SM SCT130 BKN250
     FM282000 26008KT P6SM SCT100=



000
FTUS45 KTWC 272300
TAFTUS
TAF
KTUS 272333Z 2800/2824 27008KT P6SM SCT100 BKN200
     FM280900 13008KT P6SM SCT130 BKN250
     FM282000 30010G18KT P6SM SCT100=



000
FTUS45 KTWC 272300
TAFDUG
TAF
KDUG 272333Z 2800/2824 17013KT P6SM VCTS SCT070CB BKN200
     FM280200 36012KT P6SM SCT070 BKN140
     FM281100 08006KT P6SM SCT140 BKN250
     FM282000 27009KT P6SM SCT100=



000
FTUS45 KTWC 271900 AAA
TAFTUS
TAF AMD
KTUS 271927Z 2719/2818 28013G20KT P6SM FEW090 SCT250
     FM280000 25008KT P6SM SCT070 BKN130
     FM280900 13008KT P6SM SCT070 BKN130=



000
FTUS45 KTWC 271700
TAFOLS
TAF
KOLS 271736Z 2718/2818 21006KT P6SM FEW120 SCT250
     FM272100 26008KT P6SM SCT070 BKN150
     FM280200 VRB03KT P6SM VCTS SCT070CB BKN130
     FM280500 09005KT P6SM BKN140=



000
FTUS45 KTWC 271700
TAFOLS
TAF
KOLS 271736Z 2718/2818 21006KT P6SM FEW120 SCT250
     FM272100 26008KT P6SM SCT070 BKN150
     FM280200 VRB03KT P6SM VCTS SCT070CB BKN130
     FM280500 09005KT P6SM BKN140=



000
FTUS45 KTWC 271700
TAFTUS
TAF
KTUS 271736Z 2718/2818 15006KT P6SM FEW140 SCT250
     FM272000 32010G16KT P6SM FEW070 SCT130
     FM280000 25008KT P6SM SCT070 BKN130
     FM280900 13008KT P6SM SCT070 BKN130=



000
FTUS45 KTWC 271700
TAFDUG
TAF
KDUG 271736Z 2718/2818 34015KT P6SM FEW060
     FM272300 23008KT P6SM VCTS SCT070CB BKN130
     FM280200 29009KT P6SM SCT070 BKN140
     FM281100 05006KT P6SM SCT070 BKN150=



000
FTUS45 KTWC 271600 AAB
TAFTUS
TAF AMD
KTUS 271612Z 2716/2812 VRB04KT P6SM FEW090 SCT140 BKN250
     FM271800 32010G16KT P6SM FEW070 SCT130
     FM280000 25008KT P6SM SCT070 BKN130
     FM280400 19008KT P6SM SCT070 BKN130=



000
FTUS45 KTWC 271600 AAA
TAFDUG
TAF AMD
KDUG 271610Z 2716/2812 34015KT P6SM FEW060
     FM272000 30010G16KT P6SM SCT060
     FM280000 23008KT P6SM VCSH SCT070 BKN130
     FM280500 32007KT P6SM SCT070 BKN150=



000
FTUS45 KTWC 271300 AAA
TAFTUS
TAF AMD
KTUS 271326Z 2713/2812 19006KT P6SM SCT050 BKN100
     FM271800 32010G16KT P6SM FEW070 SCT130
     FM280000 25008KT P6SM SCT070 BKN130
     FM280400 19008KT P6SM SCT070 BKN130=



000
FTUS45 KTWC 271300 AAA
TAFOLS
TAF AMD
KOLS 271321Z 2713/2812 13006KT P6SM FEW060 BKN120
     FM271900 26008KT P6SM SCT070 BKN150
     FM280200 VRB03KT P6SM SCT070 BKN130=



000
FTUS45 KTWC 271300 AAA
TAFOLS
TAF AMD
KOLS 271321Z 2713/2812 13006KT P6SM FEW060 BKN120
     FM271900 26008KT P6SM SCT070 BKN150
     FM280200 VRB03KT P6SM SCT070 BKN130=



000
FTUS45 KTWC 271100 RRA
TAFTUS
TAF
KTUS 271145Z 2712/2812 14006KT P6SM SCT070 BKN130
     FM271800 32010G16KT P6SM FEW080 SCT150
     FM280000 25008KT P6SM VCTS SCT070CB BKN130
     FM280300 19008KT P6SM SCT070 BKN130=



000
FTUS45 KTWC 271100 RRA
TAFOLS
TAF
KOLS 271145Z 2712/2812 15005KT P6SM -SHRA FEW060 BKN110
     FM271400 VRB03KT P6SM FEW070 BKN130
     FM271900 26008KT P6SM SCT070 BKN150
     FM280200 VRB03KT P6SM SCT070 BKN130=



000
FTUS45 KTWC 271100 RRA
TAFOLS
TAF
KOLS 271145Z 2712/2812 15005KT P6SM -SHRA FEW060 BKN110
     FM271400 VRB03KT P6SM FEW070 BKN130
     FM271900 26008KT P6SM SCT070 BKN150
     FM280200 VRB03KT P6SM SCT070 BKN130=



000
FTUS45 KTWC 271100 RRA
TAFDUG
TAF
KDUG 271145Z 2712/2812 25008KT P6SM SCT100 BKN150
     FM272000 30010G16KT P6SM SCT060
     FM280000 23008KT P6SM VCSH SCT070 BKN130
     FM280500 32007KT P6SM SCT070 BKN150=



000
FTUS45 KTWC 271000 AAA
TAFTUS
TAF AMD
KTUS 271038Z 2711/2806 16005KT P6SM SCT060 BKN150
      TEMPO 2711/2713 VRB15G25KT -TSRA BKN050CB
     FM272000 31010KT P6SM SCT070
     FM272300 28013KT P6SM VCSH SCT080 BKN140=



000
FTUS45 KTWC 270500 AAA
TAFOLS
TAF AMD
KOLS 270557Z 2706/2806 VRB05KT P6SM VCTS SCT070CB BKN130
      TEMPO 2707/2709 VRB15G25KT 5SM TSRA BKN070CB
     FM271000 VRB04KT P6SM SCT050 BKN150
     FM272000 29010KT P6SM VCSH SCT060 BKN120=



000
FTUS45 KTWC 270500 AAA
TAFOLS
TAF AMD
KOLS 270557Z 2706/2806 VRB05KT P6SM VCTS SCT070CB BKN130
      TEMPO 2707/2709 VRB15G25KT 5SM TSRA BKN070CB
     FM271000 VRB04KT P6SM SCT050 BKN150
     FM272000 29010KT P6SM VCSH SCT060 BKN120=



000
FTUS45 KTWC 270500
TAFOLS
TAF
KOLS 270520Z 2706/2806 VRB05KT P6SM VCSH SCT070 BKN130
      TEMPO 2707/2709 VRB15G25KT 5SM TSRA BKN070CB
     FM271000 VRB04KT P6SM SCT050 BKN150
     FM272000 29010KT P6SM VCSH SCT060 BKN120=



000
FTUS45 KTWC 270500
TAFOLS
TAF
KOLS 270520Z 2706/2806 VRB05KT P6SM VCSH SCT070 BKN130
      TEMPO 2707/2709 VRB15G25KT 5SM TSRA BKN070CB
     FM271000 VRB04KT P6SM SCT050 BKN150
     FM272000 29010KT P6SM VCSH SCT060 BKN120=



000
FTUS45 KTWC 270500
TAFTUS
TAF
KTUS 270520Z 2706/2806 31009KT P6SM VCSH SCT080 BKN140
     FM271000 16005KT P6SM SCT060 BKN150
     FM272000 31010KT P6SM SCT070
     FM272300 28013KT P6SM VCSH SCT080 BKN140=



000
FTUS45 KTWC 270500
TAFDUG
TAF
KDUG 270520Z 2706/2806 32011KT P6SM VCSH SCT070 BKN130
      TEMPO 2706/2707 VRB15G25KT 5SM TSRA BKN070CB
     FM270900 08007KT P6SM SCT080
     FM272000 30013KT P6SM VCSH SCT060 BKN120=



000
FTUS45 KTWC 262300 AAA
TAFOLS
TAF AMD
KOLS 262352Z 2700/2724 28011G20KT P6SM VCSH SCT070
      TEMPO 2701/2703 VRB20G30KT 6SM TSRA BKN070CB
     FM270300 VRB06KT P6SM VCSH SCT070 BKN110
     FM270700 VRB04KT P6SM SCT050 BKN130
     FM272000 29010KT P6SM VCSH SCT060=



000
FTUS45 KTWC 262300 AAA
TAFOLS
TAF AMD
KOLS 262352Z 2700/2724 28011G20KT P6SM VCSH SCT070
      TEMPO 2701/2703 VRB20G30KT 6SM TSRA BKN070CB
     FM270300 VRB06KT P6SM VCSH SCT070 BKN110
     FM270700 VRB04KT P6SM SCT050 BKN130
     FM272000 29010KT P6SM VCSH SCT060=



000
FTUS45 KTWC 262300 AAA
TAFDUG
TAF AMD
KDUG 262348Z 2700/2724 28011G20KT P6SM VCSH SCT080 BKN200
      TEMPO 2701/2702 VRB20G30KT -TSRA BKN080CB
     FM270500 14010KT P6SM SCT070 BKN140
     FM272000 28008KT P6SM VCSH SCT060=



000
FTUS45 KTWC 262300
TAFDUG
TAF
KDUG 262326Z 2700/2724 28011G20KT P6SM VCSH SCT080 BKN200
     FM270500 14010KT P6SM SCT070 BKN140
     FM272000 28008KT P6SM VCSH SCT060=



000
FTUS45 KTWC 262300
TAFOLS
TAF
KOLS 262326Z 2700/2724 28011G20KT P6SM VCSH SCT070
     FM270130 VRB06KT P6SM VCSH SCT070 BKN110
     FM270700 VRB04KT P6SM SCT050 BKN130
     FM272000 29010KT P6SM VCSH SCT060=



000
FTUS45 KTWC 262300
TAFTUS
TAF
KTUS 262326Z 2700/2724 31013G20KT P6SM SCT090
     FM270300 24011KT P6SM VCSH SCT080 BKN120
     FM270800 16005KT P6SM SCT060 BKN150
     FM272000 31010KT P6SM SCT070=



000
FTUS45 KTWC 262200 AAA
TAFTUS
TAF AMD
KTUS 262238Z 2623/2718 33013G20KT P6SM FEW090
     FM270200 30013KT P6SM VCSH SCT080 BKN120
     FM270700 16005KT P6SM SCT060 BKN150=



000
FTUS45 KTWC 261700
TAFDUG
TAF
KDUG 261731Z 2618/2718 30006KT P6SM SKC
     FM261900 29012KT P6SM SCT070
     FM270000 31014G22KT P6SM VCSH SCT080 BKN120
     FM270500 28008KT P6SM SCT060 BKN150=



000
FTUS45 KTWC 261700
TAFOLS
TAF
KOLS 261731Z 2618/2718 VRB04KT P6SM SKC
     FM261900 26010KT P6SM SCT060
     FM270100 29012KT P6SM VCSH SCT070 BKN110
     FM270600 VRB04KT P6SM SCT060 BKN150=



000
FTUS45 KTWC 261700
TAFOLS
TAF
KOLS 261731Z 2618/2718 VRB04KT P6SM SKC
     FM261900 26010KT P6SM SCT060
     FM270100 29012KT P6SM VCSH SCT070 BKN110
     FM270600 VRB04KT P6SM SCT060 BKN150=



000
FTUS45 KTWC 261700
TAFTUS
TAF
KTUS 261731Z 2618/2718 15005KT P6SM SKC
     FM261900 29010KT P6SM SCT070
     FM270200 30013KT P6SM VCSH SCT080 BKN120
     FM270700 16005KT P6SM SCT060 BKN150=



000
FTUS45 KTWC 261100
TAFTUS
TAF
KTUS 261120Z 2612/2712 15005KT P6SM SCT120
     FM261900 29010KT P6SM SCT070
     FM270100 30013KT P6SM VCSH SCT080 BKN120
     FM270700 16005KT P6SM SCT060 BKN150=



000
FTUS45 KTWC 261100
TAFOLS
TAF
KOLS 261120Z 2612/2712 VRB04KT P6SM FEW100
     FM261900 26010KT P6SM SCT060
     FM270000 29012KT P6SM VCSH SCT070 BKN110
     FM270600 VRB04KT P6SM SCT060 BKN150=



000
FTUS45 KTWC 261100
TAFDUG
TAF
KDUG 261120Z 2612/2712 30006KT P6SM FEW110
     FM261900 29012KT P6SM SCT070
     FM262300 31014G22KT P6SM VCSH SCT080 BKN120
     FM270500 28008KT P6SM SCT060 BKN150=



000
FTUS45 KTWC 260500
TAFTUS
TAF
KTUS 260520Z 2606/2706 16006KT P6SM SCT100 BKN150
     FM261900 29010KT P6SM SCT070
     FM270100 30013KT P6SM VCSH SCT080 BKN120=



000
FTUS45 KTWC 260500
TAFOLS
TAF
KOLS 260520Z 2606/2706 VRB05KT P6SM VCSH SCT070 BKN150
     FM260900 VRB04KT P6SM FEW100
     FM261900 26010KT P6SM SCT060
     FM270000 29012KT P6SM VCSH SCT070 BKN110=



000
FTUS45 KTWC 260500
TAFDUG
TAF
KDUG 260520Z 2606/2706 31014KT P6SM SCT120
     FM261000 10008KT P6SM FEW120
     FM261900 29012KT P6SM SCT070
     FM262300 31014G22KT P6SM VCSH SCT080 BKN120=



000
FTUS45 KTWC 260500
TAFOLS
TAF
KOLS 260520Z 2606/2706 VRB05KT P6SM VCSH SCT070 BKN150
     FM260900 VRB04KT P6SM FEW100
     FM261900 26010KT P6SM SCT060
     FM270000 29012KT P6SM VCSH SCT070 BKN110=



000
FTUS45 KTWC 260000 AAA
TAFTUS
TAF AMD
KTUS 260056Z 2601/2624 VRB06KT P6SM VCSH SCT090 OVC170
      TEMPO 2601/2602 VRB10G25KT -TSRA BKN090CB
     FM260300 16007KT P6SM SCT100 BKN200
     FM262100 29010KT P6SM VCSH SCT070=



000
FTUS45 KTWC 252300
TAFOLS
TAF
KOLS 252339Z 2600/2624 VRB06KT P6SM VCSH SCT060 BKN100
      TEMPO 2600/2601 5SM -TSRA BKN060CB
     FM260300 05005KT P6SM SCT100 BKN200
     FM262000 26010KT P6SM VCSH SCT060=



000
FTUS45 KTWC 252300
TAFTUS
TAF
KTUS 252339Z 2600/2624 25015G25KT P6SM VCSH FEW070 BKN090
     FM260200 13010KT P6SM VCSH SCT080 BKN120
     FM260500 16007KT P6SM SCT100 BKN200
     FM262100 29010KT P6SM VCSH SCT070=



000
FTUS45 KTWC 252300
TAFDUG
TAF
KDUG 252339Z 2600/2624 28014G22KT P6SM SCT100
     FM260200 22008KT P6SM SCT110
     FM260600 12009KT P6SM SCT150
     FM262000 30010KT P6SM SCT080=



000
FTUS45 KTWC 252300
TAFOLS
TAF
KOLS 252339Z 2600/2624 VRB06KT P6SM VCSH SCT060 BKN100
      TEMPO 2600/2601 5SM -TSRA BKN060CB
     FM260300 05005KT P6SM SCT100 BKN200
     FM262000 26010KT P6SM VCSH SCT060=



    US Dept of Commerce
    National Oceanic and Atmospheric Administration
    National Weather Service
    1325 East West Highway
    Silver Spring, MD 20910
    Page Author: NWS Internet Services Team
Disclaimer
Information Quality
Credits
Glossary
Privacy Policy
Freedom of Information Act (FOIA)
About Us
Career Opportunities